sensor_id;sensor_type;location;lat;lon;timestamp;P1;durP1;ratioP1;P2;durP2;ratioP2
77571;SDS011;67214;47.454;18.966;2023-04-10T00:01:33;26.80;;;17.40;;
77571;SDS011;67214;47.454;18.966;2023-04-10T00:04:01;29.12;;;16.73;;
77571;SDS011;67214;47.454;18.966;2023-04-10T00:06:29;29.55;;;18.32;;
77571;SDS011;67214;47.454;18.966;2023-04-10T00:08:57;31.15;;;19.23;;
77571;SDS011;67214;47.454;18.966;2023-04-10T00:11:25;27.35;;;18.40;;
77571;SDS011;67214;47.454;18.966;2023-04-10T00:13:53;28.30;;;18.92;;
77571;SDS011;67214;47.454;18.966;2023-04-10T00:16:20;27.70;;;18.23;;
77571;SDS011;67214;47.454;18.966;2023-04-10T00:18:48;31.00;;;19.52;;
77571;SDS011;67214;47.454;18.966;2023-04-10T00:21:15;25.55;;;17.55;;
77571;SDS011;67214;47.454;18.966;2023-04-10T00:23:43;33.42;;;20.35;;
77571;SDS011;67214;47.454;18.966;2023-04-10T00:26:10;28.17;;;18.45;;
77571;SDS011;67214;47.454;18.966;2023-04-10T00:28:38;31.75;;;19.25;;
77571;SDS011;67214;47.454;18.966;2023-04-10T00:31:05;31.05;;;18.92;;
77571;SDS011;67214;47.454;18.966;2023-04-10T00:33:33;28.80;;;18.73;;
77571;SDS011;67214;47.454;18.966;2023-04-10T00:36:00;33.75;;;19.67;;
77571;SDS011;67214;47.454;18.966;2023-04-10T00:38:27;40.65;;;23.20;;
77571;SDS011;67214;47.454;18.966;2023-04-10T00:40:55;35.38;;;21.05;;
77571;SDS011;67214;47.454;18.966;2023-04-10T00:43:23;34.85;;;20.95;;
77571;SDS011;67214;47.454;18.966;2023-04-10T00:45:50;70.52;;;40.33;;
77571;SDS011;67214;47.454;18.966;2023-04-10T00:48:18;37.55;;;22.07;;
77571;SDS011;67214;47.454;18.966;2023-04-10T00:50:45;36.40;;;21.97;;
77571;SDS011;67214;47.454;18.966;2023-04-10T00:53:13;35.60;;;21.48;;
77571;SDS011;67214;47.454;18.966;2023-04-10T00:55:41;51.18;;;33.92;;
77571;SDS011;67214;47.454;18.966;2023-04-10T00:58:09;39.90;;;25.45;;
77571;SDS011;67214;47.454;18.966;2023-04-10T01:00:39;33.35;;;20.88;;
77571;SDS011;67214;47.454;18.966;2023-04-10T01:03:07;34.80;;;21.97;;
77571;SDS011;67214;47.454;18.966;2023-04-10T01:08:35;29.12;;;17.95;;
77571;SDS011;67214;47.454;18.966;2023-04-10T01:11:17;33.42;;;19.25;;
77571;SDS011;67214;47.454;18.966;2023-04-10T01:13:47;31.35;;;19.25;;
77571;SDS011;67214;47.454;18.966;2023-04-10T01:16:39;29.35;;;19.48;;
77571;SDS011;67214;47.454;18.966;2023-04-10T01:19:08;28.57;;;18.17;;
77571;SDS011;67214;47.454;18.966;2023-04-10T01:21:52;31.62;;;19.77;;
77571;SDS011;67214;47.454;18.966;2023-04-10T01:29:24;28.50;;;18.00;;
77571;SDS011;67214;47.454;18.966;2023-04-10T01:32:01;27.80;;;17.55;;
77571;SDS011;67214;47.454;18.966;2023-04-10T01:34:37;28.55;;;16.87;;
77571;SDS011;67214;47.454;18.966;2023-04-10T01:37:13;29.42;;;18.40;;
77571;SDS011;67214;47.454;18.966;2023-04-10T01:40:00;27.00;;;16.97;;
77571;SDS011;67214;47.454;18.966;2023-04-10T01:42:33;32.05;;;18.52;;
77571;SDS011;67214;47.454;18.966;2023-04-10T01:45:01;29.60;;;18.00;;
77571;SDS011;67214;47.454;18.966;2023-04-10T01:47:31;29.18;;;17.05;;
77571;SDS011;67214;47.454;18.966;2023-04-10T01:49:59;30.55;;;18.85;;
77571;SDS011;67214;47.454;18.966;2023-04-10T01:52:26;28.20;;;18.52;;
77571;SDS011;67214;47.454;18.966;2023-04-10T01:54:55;28.20;;;17.92;;
77571;SDS011;67214;47.454;18.966;2023-04-10T01:57:23;25.82;;;17.55;;
77571;SDS011;67214;47.454;18.966;2023-04-10T01:59:51;30.05;;;17.52;;
77571;SDS011;67214;47.454;18.966;2023-04-10T02:02:18;30.30;;;18.10;;
77571;SDS011;67214;47.454;18.966;2023-04-10T02:04:46;29.15;;;17.92;;
77571;SDS011;67214;47.454;18.966;2023-04-10T02:07:22;31.80;;;17.70;;
77571;SDS011;67214;47.454;18.966;2023-04-10T02:12:31;29.35;;;17.40;;
77571;SDS011;67214;47.454;18.966;2023-04-10T02:15:00;28.52;;;17.05;;
77571;SDS011;67214;47.454;18.966;2023-04-10T02:17:31;25.75;;;16.52;;
77571;SDS011;67214;47.454;18.966;2023-04-10T02:20:01;27.07;;;16.82;;
77571;SDS011;67214;47.454;18.966;2023-04-10T02:22:31;28.35;;;17.25;;
77571;SDS011;67214;47.454;18.966;2023-04-10T02:24:59;28.73;;;17.85;;
77571;SDS011;67214;47.454;18.966;2023-04-10T02:27:32;31.55;;;18.48;;
77571;SDS011;67214;47.454;18.966;2023-04-10T02:30:00;30.77;;;17.92;;
77571;SDS011;67214;47.454;18.966;2023-04-10T02:32:29;31.50;;;18.73;;
77571;SDS011;67214;47.454;18.966;2023-04-10T02:35:01;32.15;;;18.30;;
77571;SDS011;67214;47.454;18.966;2023-04-10T02:37:29;29.55;;;18.45;;
77571;SDS011;67214;47.454;18.966;2023-04-10T02:39:57;27.42;;;16.82;;
77571;SDS011;67214;47.454;18.966;2023-04-10T02:42:25;27.13;;;16.90;;
77571;SDS011;67214;47.454;18.966;2023-04-10T02:44:52;25.85;;;16.65;;
77571;SDS011;67214;47.454;18.966;2023-04-10T02:47:20;29.72;;;16.52;;
77571;SDS011;67214;47.454;18.966;2023-04-10T02:49:49;27.27;;;17.30;;
77571;SDS011;67214;47.454;18.966;2023-04-10T02:52:16;31.27;;;18.20;;
77571;SDS011;67214;47.454;18.966;2023-04-10T02:54:44;32.58;;;17.98;;
77571;SDS011;67214;47.454;18.966;2023-04-10T02:57:12;27.42;;;16.52;;
77571;SDS011;67214;47.454;18.966;2023-04-10T02:59:39;29.10;;;17.40;;
77571;SDS011;67214;47.454;18.966;2023-04-10T03:02:07;29.95;;;18.57;;
77571;SDS011;67214;47.454;18.966;2023-04-10T03:04:34;28.80;;;17.67;;
77571;SDS011;67214;47.454;18.966;2023-04-10T03:07:02;29.37;;;18.37;;
77571;SDS011;67214;47.454;18.966;2023-04-10T03:09:30;28.92;;;17.98;;
77571;SDS011;67214;47.454;18.966;2023-04-10T03:11:57;30.68;;;18.27;;
77571;SDS011;67214;47.454;18.966;2023-04-10T03:14:26;33.67;;;19.37;;
77571;SDS011;67214;47.454;18.966;2023-04-10T03:16:54;30.05;;;18.30;;
77571;SDS011;67214;47.454;18.966;2023-04-10T03:19:21;30.68;;;19.50;;
77571;SDS011;67214;47.454;18.966;2023-04-10T03:21:50;29.48;;;18.57;;
77571;SDS011;67214;47.454;18.966;2023-04-10T03:24:18;31.73;;;18.50;;
77571;SDS011;67214;47.454;18.966;2023-04-10T03:26:45;27.37;;;18.35;;
77571;SDS011;67214;47.454;18.966;2023-04-10T03:29:13;28.42;;;16.02;;
77571;SDS011;67214;47.454;18.966;2023-04-10T03:31:42;28.32;;;16.90;;
77571;SDS011;67214;47.454;18.966;2023-04-10T03:34:09;26.12;;;16.80;;
77571;SDS011;67214;47.454;18.966;2023-04-10T03:36:37;28.07;;;17.23;;
77571;SDS011;67214;47.454;18.966;2023-04-10T03:39:04;29.27;;;17.92;;
77571;SDS011;67214;47.454;18.966;2023-04-10T03:41:32;29.18;;;17.73;;
77571;SDS011;67214;47.454;18.966;2023-04-10T03:43:59;30.55;;;17.30;;
77571;SDS011;67214;47.454;18.966;2023-04-10T03:46:28;23.90;;;15.75;;
77571;SDS011;67214;47.454;18.966;2023-04-10T03:48:55;29.57;;;16.42;;
77571;SDS011;67214;47.454;18.966;2023-04-10T03:51:23;27.70;;;16.17;;
77571;SDS011;67214;47.454;18.966;2023-04-10T03:53:51;26.23;;;17.45;;
77571;SDS011;67214;47.454;18.966;2023-04-10T03:56:18;29.10;;;17.52;;
77571;SDS011;67214;47.454;18.966;2023-04-10T03:58:47;29.90;;;17.85;;
77571;SDS011;67214;47.454;18.966;2023-04-10T04:01:14;29.23;;;17.17;;
77571;SDS011;67214;47.454;18.966;2023-04-10T04:03:42;28.75;;;16.48;;
77571;SDS011;67214;47.454;18.966;2023-04-10T04:06:09;31.82;;;18.27;;
77571;SDS011;67214;47.454;18.966;2023-04-10T04:08:37;29.87;;;18.05;;
77571;SDS011;67214;47.454;18.966;2023-04-10T04:11:04;32.42;;;18.10;;
77571;SDS011;67214;47.454;18.966;2023-04-10T04:13:32;34.08;;;20.92;;
77571;SDS011;67214;47.454;18.966;2023-04-10T04:16:00;36.25;;;20.30;;
77571;SDS011;67214;47.454;18.966;2023-04-10T04:18:27;34.75;;;20.35;;
77571;SDS011;67214;47.454;18.966;2023-04-10T04:20:55;35.85;;;21.37;;
77571;SDS011;67214;47.454;18.966;2023-04-10T04:23:22;34.25;;;20.52;;
77571;SDS011;67214;47.454;18.966;2023-04-10T04:25:50;30.92;;;19.42;;
77571;SDS011;67214;47.454;18.966;2023-04-10T04:28:18;32.08;;;19.70;;
77571;SDS011;67214;47.454;18.966;2023-04-10T04:30:46;28.65;;;18.65;;
77571;SDS011;67214;47.454;18.966;2023-04-10T04:33:13;32.05;;;19.57;;
77571;SDS011;67214;47.454;18.966;2023-04-10T04:35:41;34.38;;;18.73;;
77571;SDS011;67214;47.454;18.966;2023-04-10T04:38:08;39.83;;;22.02;;
77571;SDS011;67214;47.454;18.966;2023-04-10T04:40:36;35.45;;;20.60;;
77571;SDS011;67214;47.454;18.966;2023-04-10T04:43:03;34.15;;;19.60;;
77571;SDS011;67214;47.454;18.966;2023-04-10T04:45:30;35.78;;;21.10;;
77571;SDS011;67214;47.454;18.966;2023-04-10T04:47:58;37.88;;;21.30;;
77571;SDS011;67214;47.454;18.966;2023-04-10T04:50:25;33.42;;;20.23;;
77571;SDS011;67214;47.454;18.966;2023-04-10T04:52:53;34.80;;;20.43;;
77571;SDS011;67214;47.454;18.966;2023-04-10T04:55:20;36.60;;;21.00;;
77571;SDS011;67214;47.454;18.966;2023-04-10T04:57:48;35.83;;;20.25;;
77571;SDS011;67214;47.454;18.966;2023-04-10T05:00:15;30.82;;;19.52;;
77571;SDS011;67214;47.454;18.966;2023-04-10T05:02:43;35.00;;;20.02;;
77571;SDS011;67214;47.454;18.966;2023-04-10T05:05:10;37.90;;;22.70;;
77571;SDS011;67214;47.454;18.966;2023-04-10T05:07:37;43.08;;;25.00;;
77571;SDS011;67214;47.454;18.966;2023-04-10T05:10:05;34.63;;;21.70;;
77571;SDS011;67214;47.454;18.966;2023-04-10T05:12:33;32.23;;;20.55;;
77571;SDS011;67214;47.454;18.966;2023-04-10T05:15:02;31.68;;;19.87;;
77571;SDS011;67214;47.454;18.966;2023-04-10T05:17:30;29.32;;;20.23;;
77571;SDS011;67214;47.454;18.966;2023-04-10T05:19:57;38.80;;;23.83;;
77571;SDS011;67214;47.454;18.966;2023-04-10T05:22:25;36.23;;;22.73;;
77571;SDS011;67214;47.454;18.966;2023-04-10T05:24:53;33.50;;;20.52;;
77571;SDS011;67214;47.454;18.966;2023-04-10T05:27:20;30.32;;;18.95;;
77571;SDS011;67214;47.454;18.966;2023-04-10T05:29:48;30.35;;;19.15;;
77571;SDS011;67214;47.454;18.966;2023-04-10T05:32:15;30.05;;;19.77;;
77571;SDS011;67214;47.454;18.966;2023-04-10T05:34:43;30.62;;;18.75;;
77571;SDS011;67214;47.454;18.966;2023-04-10T05:37:10;32.70;;;20.77;;
77571;SDS011;67214;47.454;18.966;2023-04-10T05:39:38;32.25;;;22.37;;
77571;SDS011;67214;47.454;18.966;2023-04-10T05:42:05;31.82;;;21.33;;
77571;SDS011;67214;47.454;18.966;2023-04-10T05:44:33;31.20;;;19.27;;
77571;SDS011;67214;47.454;18.966;2023-04-10T05:47:00;30.20;;;18.67;;
77571;SDS011;67214;47.454;18.966;2023-04-10T05:49:27;29.32;;;18.73;;
77571;SDS011;67214;47.454;18.966;2023-04-10T05:51:55;26.77;;;17.82;;
77571;SDS011;67214;47.454;18.966;2023-04-10T05:54:22;29.70;;;17.10;;
77571;SDS011;67214;47.454;18.966;2023-04-10T05:56:50;30.48;;;18.27;;
77571;SDS011;67214;47.454;18.966;2023-04-10T05:59:17;27.98;;;17.57;;
77571;SDS011;67214;47.454;18.966;2023-04-10T06:01:45;29.40;;;16.52;;
77571;SDS011;67214;47.454;18.966;2023-04-10T06:04:12;27.30;;;17.65;;
77571;SDS011;67214;47.454;18.966;2023-04-10T06:06:40;26.95;;;18.65;;
77571;SDS011;67214;47.454;18.966;2023-04-10T06:09:07;30.23;;;20.05;;
77571;SDS011;67214;47.454;18.966;2023-04-10T06:11:35;26.35;;;18.30;;
77571;SDS011;67214;47.454;18.966;2023-04-10T06:14:02;28.07;;;19.45;;
77571;SDS011;67214;47.454;18.966;2023-04-10T06:16:30;29.32;;;19.57;;
77571;SDS011;67214;47.454;18.966;2023-04-10T06:18:57;28.32;;;18.27;;
77571;SDS011;67214;47.454;18.966;2023-04-10T06:21:25;26.70;;;17.87;;
77571;SDS011;67214;47.454;18.966;2023-04-10T06:23:53;30.10;;;19.50;;
77571;SDS011;67214;47.454;18.966;2023-04-10T06:26:20;32.35;;;20.60;;
77571;SDS011;67214;47.454;18.966;2023-04-10T06:28:50;29.75;;;19.82;;
77571;SDS011;67214;47.454;18.966;2023-04-10T06:31:18;29.40;;;19.75;;
77571;SDS011;67214;47.454;18.966;2023-04-10T06:33:49;30.62;;;20.12;;
77571;SDS011;67214;47.454;18.966;2023-04-10T06:36:16;30.43;;;19.27;;
77571;SDS011;67214;47.454;18.966;2023-04-10T06:38:44;29.72;;;20.08;;
77571;SDS011;67214;47.454;18.966;2023-04-10T06:41:11;30.40;;;20.52;;
77571;SDS011;67214;47.454;18.966;2023-04-10T06:43:38;26.85;;;19.55;;
77571;SDS011;67214;47.454;18.966;2023-04-10T06:46:06;26.25;;;17.98;;
77571;SDS011;67214;47.454;18.966;2023-04-10T06:48:34;29.30;;;20.12;;
77571;SDS011;67214;47.454;18.966;2023-04-10T06:51:01;33.78;;;23.00;;
77571;SDS011;67214;47.454;18.966;2023-04-10T06:53:29;27.60;;;20.75;;
77571;SDS011;67214;47.454;18.966;2023-04-10T06:55:57;25.80;;;17.92;;
77571;SDS011;67214;47.454;18.966;2023-04-10T06:58:25;25.70;;;19.17;;
77571;SDS011;67214;47.454;18.966;2023-04-10T07:00:56;26.77;;;18.37;;
77571;SDS011;67214;47.454;18.966;2023-04-10T07:03:25;23.98;;;17.67;;
77571;SDS011;67214;47.454;18.966;2023-04-10T07:05:52;25.85;;;17.82;;
77571;SDS011;67214;47.454;18.966;2023-04-10T07:08:20;24.12;;;17.42;;
77571;SDS011;67214;47.454;18.966;2023-04-10T07:10:47;24.02;;;17.02;;
77571;SDS011;67214;47.454;18.966;2023-04-10T07:13:15;22.00;;;17.00;;
77571;SDS011;67214;47.454;18.966;2023-04-10T07:15:42;22.67;;;16.77;;
77571;SDS011;67214;47.454;18.966;2023-04-10T07:18:10;21.95;;;15.90;;
77571;SDS011;67214;47.454;18.966;2023-04-10T07:20:37;20.60;;;14.18;;
77571;SDS011;67214;47.454;18.966;2023-04-10T07:23:05;19.00;;;14.58;;
77571;SDS011;67214;47.454;18.966;2023-04-10T07:25:33;19.52;;;14.98;;
77571;SDS011;67214;47.454;18.966;2023-04-10T07:28:00;18.45;;;14.07;;
77571;SDS011;67214;47.454;18.966;2023-04-10T07:30:28;18.55;;;14.98;;
77571;SDS011;67214;47.454;18.966;2023-04-10T07:32:55;19.75;;;15.20;;
77571;SDS011;67214;47.454;18.966;2023-04-10T07:35:23;22.52;;;16.20;;
77571;SDS011;67214;47.454;18.966;2023-04-10T07:37:51;20.32;;;15.32;;
77571;SDS011;67214;47.454;18.966;2023-04-10T07:40:19;17.17;;;13.35;;
77571;SDS011;67214;47.454;18.966;2023-04-10T07:42:46;18.40;;;13.53;;
77571;SDS011;67214;47.454;18.966;2023-04-10T07:45:14;19.37;;;14.15;;
77571;SDS011;67214;47.454;18.966;2023-04-10T07:47:41;19.32;;;14.87;;
77571;SDS011;67214;47.454;18.966;2023-04-10T07:50:09;18.27;;;13.62;;
77571;SDS011;67214;47.454;18.966;2023-04-10T07:52:36;18.40;;;13.90;;
77571;SDS011;67214;47.454;18.966;2023-04-10T07:55:04;17.20;;;14.07;;
77571;SDS011;67214;47.454;18.966;2023-04-10T07:57:32;17.57;;;13.70;;
77571;SDS011;67214;47.454;18.966;2023-04-10T07:59:59;16.67;;;12.90;;
77571;SDS011;67214;47.454;18.966;2023-04-10T08:02:27;15.00;;;12.55;;
77571;SDS011;67214;47.454;18.966;2023-04-10T08:04:55;16.12;;;12.43;;
77571;SDS011;67214;47.454;18.966;2023-04-10T08:07:22;17.73;;;13.78;;
77571;SDS011;67214;47.454;18.966;2023-04-10T08:09:50;16.07;;;13.25;;
77571;SDS011;67214;47.454;18.966;2023-04-10T08:12:17;15.38;;;12.50;;
77571;SDS011;67214;47.454;18.966;2023-04-10T08:14:45;14.20;;;11.55;;
77571;SDS011;67214;47.454;18.966;2023-04-10T08:17:12;13.70;;;10.80;;
77571;SDS011;67214;47.454;18.966;2023-04-10T08:19:42;15.45;;;11.30;;
77571;SDS011;67214;47.454;18.966;2023-04-10T08:22:10;14.75;;;11.65;;
77571;SDS011;67214;47.454;18.966;2023-04-10T08:24:38;13.83;;;11.50;;
77571;SDS011;67214;47.454;18.966;2023-04-10T08:27:05;13.43;;;11.00;;
77571;SDS011;67214;47.454;18.966;2023-04-10T08:29:33;12.82;;;10.82;;
77571;SDS011;67214;47.454;18.966;2023-04-10T08:32:00;14.10;;;11.53;;
77571;SDS011;67214;47.454;18.966;2023-04-10T08:34:28;15.32;;;12.20;;
77571;SDS011;67214;47.454;18.966;2023-04-10T08:36:56;13.08;;;10.40;;
77571;SDS011;67214;47.454;18.966;2023-04-10T08:39:23;14.98;;;11.18;;
77571;SDS011;67214;47.454;18.966;2023-04-10T08:41:51;12.75;;;10.80;;
77571;SDS011;67214;47.454;18.966;2023-04-10T08:44:19;12.68;;;10.75;;
77571;SDS011;67214;47.454;18.966;2023-04-10T08:46:47;13.62;;;10.93;;
77571;SDS011;67214;47.454;18.966;2023-04-10T08:49:16;15.23;;;11.78;;
77571;SDS011;67214;47.454;18.966;2023-04-10T08:51:57;16.05;;;12.23;;
77571;SDS011;67214;47.454;18.966;2023-04-10T08:54:31;13.90;;;11.38;;
77571;SDS011;67214;47.454;18.966;2023-04-10T08:57:02;14.53;;;11.15;;
77571;SDS011;67214;47.454;18.966;2023-04-10T08:59:32;12.40;;;10.23;;
77571;SDS011;67214;47.454;18.966;2023-04-10T09:01:59;13.60;;;11.08;;
77571;SDS011;67214;47.454;18.966;2023-04-10T09:04:29;16.25;;;11.88;;
77571;SDS011;67214;47.454;18.966;2023-04-10T09:06:56;15.15;;;12.05;;
77571;SDS011;67214;47.454;18.966;2023-04-10T09:09:24;15.85;;;12.13;;
77571;SDS011;67214;47.454;18.966;2023-04-10T09:14:26;14.45;;;11.75;;
77571;SDS011;67214;47.454;18.966;2023-04-10T09:19:45;14.07;;;11.78;;
77571;SDS011;67214;47.454;18.966;2023-04-10T09:22:14;14.00;;;11.03;;
77571;SDS011;67214;47.454;18.966;2023-04-10T09:24:42;13.48;;;11.05;;
77571;SDS011;67214;47.454;18.966;2023-04-10T09:27:31;14.20;;;11.63;;
77571;SDS011;67214;47.454;18.966;2023-04-10T09:30:01;12.35;;;10.72;;
77571;SDS011;67214;47.454;18.966;2023-04-10T09:32:42;13.22;;;11.05;;
77571;SDS011;67214;47.454;18.966;2023-04-10T09:35:14;13.60;;;11.03;;
77571;SDS011;67214;47.454;18.966;2023-04-10T09:37:47;12.53;;;10.43;;
77571;SDS011;67214;47.454;18.966;2023-04-10T09:40:21;13.35;;;10.43;;
77571;SDS011;67214;47.454;18.966;2023-04-10T09:42:50;10.85;;;9.43;;
77571;SDS011;67214;47.454;18.966;2023-04-10T09:45:18;11.50;;;10.28;;
77571;SDS011;67214;47.454;18.966;2023-04-10T09:48:00;12.03;;;10.60;;
77571;SDS011;67214;47.454;18.966;2023-04-10T09:50:34;13.25;;;10.93;;
77571;SDS011;67214;47.454;18.966;2023-04-10T09:55:30;14.20;;;11.50;;
77571;SDS011;67214;47.454;18.966;2023-04-10T09:58:00;11.85;;;10.13;;
77571;SDS011;67214;47.454;18.966;2023-04-10T10:00:32;12.63;;;10.38;;
77571;SDS011;67214;47.454;18.966;2023-04-10T10:03:01;12.60;;;10.25;;
77571;SDS011;67214;47.454;18.966;2023-04-10T10:05:31;11.60;;;9.20;;
77571;SDS011;67214;47.454;18.966;2023-04-10T10:08:02;10.82;;;8.68;;
77571;SDS011;67214;47.454;18.966;2023-04-10T10:10:29;11.48;;;9.93;;
77571;SDS011;67214;47.454;18.966;2023-04-10T10:13:00;10.25;;;9.13;;
77571;SDS011;67214;47.454;18.966;2023-04-10T10:18:21;11.15;;;9.13;;
77571;SDS011;67214;47.454;18.966;2023-04-10T10:23:19;12.25;;;9.43;;
77571;SDS011;67214;47.454;18.966;2023-04-10T10:25:48;12.28;;;10.20;;
77571;SDS011;67214;47.454;18.966;2023-04-10T10:28:17;12.23;;;9.40;;
77571;SDS011;67214;47.454;18.966;2023-04-10T10:30:46;11.73;;;10.18;;
77571;SDS011;67214;47.454;18.966;2023-04-10T10:33:14;10.78;;;9.45;;
77571;SDS011;67214;47.454;18.966;2023-04-10T10:35:42;12.47;;;9.43;;
77571;SDS011;67214;47.454;18.966;2023-04-10T10:38:10;10.85;;;8.68;;
77571;SDS011;67214;47.454;18.966;2023-04-10T10:40:40;11.63;;;9.50;;
77571;SDS011;67214;47.454;18.966;2023-04-10T10:43:26;11.80;;;10.10;;
77571;SDS011;67214;47.454;18.966;2023-04-10T10:46:00;12.85;;;9.78;;
77571;SDS011;67214;47.454;18.966;2023-04-10T10:48:28;12.03;;;9.58;;
77571;SDS011;67214;47.454;18.966;2023-04-10T10:50:56;11.08;;;9.08;;
77571;SDS011;67214;47.454;18.966;2023-04-10T10:53:34;11.57;;;10.10;;
77571;SDS011;67214;47.454;18.966;2023-04-10T10:58:48;11.48;;;8.93;;
77571;SDS011;67214;47.454;18.966;2023-04-10T11:01:22;11.48;;;9.78;;
77571;SDS011;67214;47.454;18.966;2023-04-10T11:03:50;11.68;;;9.85;;
77571;SDS011;67214;47.454;18.966;2023-04-10T11:06:18;11.83;;;9.23;;
77571;SDS011;67214;47.454;18.966;2023-04-10T11:08:47;11.90;;;9.78;;
77571;SDS011;67214;47.454;18.966;2023-04-10T11:11:19;11.90;;;9.90;;
77571;SDS011;67214;47.454;18.966;2023-04-10T11:16:22;12.45;;;9.20;;
77571;SDS011;67214;47.454;18.966;2023-04-10T11:21:23;10.68;;;9.20;;
77571;SDS011;67214;47.454;18.966;2023-04-10T11:31:46;12.15;;;8.95;;
77571;SDS011;67214;47.454;18.966;2023-04-10T11:34:21;11.08;;;9.18;;
77571;SDS011;67214;47.454;18.966;2023-04-10T11:36:52;13.03;;;10.05;;
77571;SDS011;67214;47.454;18.966;2023-04-10T11:39:20;11.40;;;9.58;;
77571;SDS011;67214;47.454;18.966;2023-04-10T11:41:48;11.30;;;9.60;;
77571;SDS011;67214;47.454;18.966;2023-04-10T11:44:30;11.05;;;9.30;;
77571;SDS011;67214;47.454;18.966;2023-04-10T11:47:03;11.68;;;9.93;;
77571;SDS011;67214;47.454;18.966;2023-04-10T11:49:31;12.40;;;9.65;;
77571;SDS011;67214;47.454;18.966;2023-04-10T11:52:01;9.95;;;8.65;;
77571;SDS011;67214;47.454;18.966;2023-04-10T11:54:28;11.65;;;8.88;;
77571;SDS011;67214;47.454;18.966;2023-04-10T11:56:58;10.25;;;8.43;;
77571;SDS011;67214;47.454;18.966;2023-04-10T11:59:28;9.80;;;8.53;;
77571;SDS011;67214;47.454;18.966;2023-04-10T12:02:06;10.85;;;8.90;;
77571;SDS011;67214;47.454;18.966;2023-04-10T12:04:41;9.38;;;8.05;;
77571;SDS011;67214;47.454;18.966;2023-04-10T12:07:09;10.32;;;7.80;;
77571;SDS011;67214;47.454;18.966;2023-04-10T12:09:37;9.35;;;7.97;;
77571;SDS011;67214;47.454;18.966;2023-04-10T12:12:05;9.85;;;7.60;;
77571;SDS011;67214;47.454;18.966;2023-04-10T12:14:34;8.60;;;7.67;;
77571;SDS011;67214;47.454;18.966;2023-04-10T12:17:06;9.68;;;8.18;;
77571;SDS011;67214;47.454;18.966;2023-04-10T12:19:35;10.65;;;8.70;;
77571;SDS011;67214;47.454;18.966;2023-04-10T12:22:04;8.75;;;7.35;;
77571;SDS011;67214;47.454;18.966;2023-04-10T12:27:23;8.50;;;7.60;;
77571;SDS011;67214;47.454;18.966;2023-04-10T12:29:53;11.12;;;7.72;;
77571;SDS011;67214;47.454;18.966;2023-04-10T12:32:22;9.25;;;7.80;;
77571;SDS011;67214;47.454;18.966;2023-04-10T12:34:53;9.98;;;8.63;;
77571;SDS011;67214;47.454;18.966;2023-04-10T12:37:23;10.82;;;9.70;;
77571;SDS011;67214;47.454;18.966;2023-04-10T12:39:51;11.12;;;9.43;;
77571;SDS011;67214;47.454;18.966;2023-04-10T12:42:20;10.13;;;8.03;;
77571;SDS011;67214;47.454;18.966;2023-04-10T12:44:49;8.73;;;7.40;;
77571;SDS011;67214;47.454;18.966;2023-04-10T12:47:26;8.85;;;7.83;;
77571;SDS011;67214;47.454;18.966;2023-04-10T12:50:02;9.48;;;7.92;;
77571;SDS011;67214;47.454;18.966;2023-04-10T12:52:35;9.05;;;7.60;;
77571;SDS011;67214;47.454;18.966;2023-04-10T12:55:18;9.95;;;7.55;;
77571;SDS011;67214;47.454;18.966;2023-04-10T12:57:47;10.28;;;7.62;;
77571;SDS011;67214;47.454;18.966;2023-04-10T13:00:16;9.08;;;7.62;;
77571;SDS011;67214;47.454;18.966;2023-04-10T13:02:45;8.65;;;7.75;;
77571;SDS011;67214;47.454;18.966;2023-04-10T13:05:14;10.53;;;8.15;;
77571;SDS011;67214;47.454;18.966;2023-04-10T13:07:41;9.45;;;8.15;;
77571;SDS011;67214;47.454;18.966;2023-04-10T13:10:09;10.53;;;8.75;;
77571;SDS011;67214;47.454;18.966;2023-04-10T13:12:36;11.57;;;8.03;;
77571;SDS011;67214;47.454;18.966;2023-04-10T13:15:06;9.13;;;7.97;;
77571;SDS011;67214;47.454;18.966;2023-04-10T13:17:35;10.30;;;7.30;;
77571;SDS011;67214;47.454;18.966;2023-04-10T13:20:02;10.70;;;7.65;;
77571;SDS011;67214;47.454;18.966;2023-04-10T13:22:30;9.63;;;6.80;;
77571;SDS011;67214;47.454;18.966;2023-04-10T13:24:58;7.53;;;6.30;;
77571;SDS011;67214;47.454;18.966;2023-04-10T13:27:25;8.75;;;7.65;;
77571;SDS011;67214;47.454;18.966;2023-04-10T13:29:54;8.33;;;6.65;;
77571;SDS011;67214;47.454;18.966;2023-04-10T13:32:21;9.40;;;7.40;;
77571;SDS011;67214;47.454;18.966;2023-04-10T13:34:49;13.30;;;7.78;;
77571;SDS011;67214;47.454;18.966;2023-04-10T13:37:17;7.55;;;6.03;;
77571;SDS011;67214;47.454;18.966;2023-04-10T13:39:44;8.08;;;6.53;;
77571;SDS011;67214;47.454;18.966;2023-04-10T13:42:12;8.65;;;7.05;;
77571;SDS011;67214;47.454;18.966;2023-04-10T13:44:40;7.85;;;7.05;;
77571;SDS011;67214;47.454;18.966;2023-04-10T13:47:07;7.90;;;6.70;;
77571;SDS011;67214;47.454;18.966;2023-04-10T13:49:35;11.45;;;6.62;;
77571;SDS011;67214;47.454;18.966;2023-04-10T13:52:02;8.05;;;6.45;;
77571;SDS011;67214;47.454;18.966;2023-04-10T13:54:30;7.05;;;5.90;;
77571;SDS011;67214;47.454;18.966;2023-04-10T13:56:57;6.72;;;5.12;;
77571;SDS011;67214;47.454;18.966;2023-04-10T13:59:25;7.22;;;5.30;;
77571;SDS011;67214;47.454;18.966;2023-04-10T14:01:52;7.83;;;5.12;;
77571;SDS011;67214;47.454;18.966;2023-04-10T14:04:20;5.47;;;4.97;;
77571;SDS011;67214;47.454;18.966;2023-04-10T14:06:47;8.20;;;6.67;;
77571;SDS011;67214;47.454;18.966;2023-04-10T14:09:16;8.70;;;7.45;;
77571;SDS011;67214;47.454;18.966;2023-04-10T14:11:44;9.85;;;6.92;;
77571;SDS011;67214;47.454;18.966;2023-04-10T14:14:11;10.20;;;6.58;;
77571;SDS011;67214;47.454;18.966;2023-04-10T14:16:38;8.43;;;6.37;;
77571;SDS011;67214;47.454;18.966;2023-04-10T14:19:06;7.03;;;6.33;;
77571;SDS011;67214;47.454;18.966;2023-04-10T14:21:33;6.58;;;5.92;;
77571;SDS011;67214;47.454;18.966;2023-04-10T14:24:01;6.37;;;5.58;;
77571;SDS011;67214;47.454;18.966;2023-04-10T14:26:31;8.68;;;6.17;;
77571;SDS011;67214;47.454;18.966;2023-04-10T14:28:58;7.95;;;5.58;;
77571;SDS011;67214;47.454;18.966;2023-04-10T14:31:25;8.28;;;5.83;;
77571;SDS011;67214;47.454;18.966;2023-04-10T14:33:53;9.78;;;5.45;;
77571;SDS011;67214;47.454;18.966;2023-04-10T14:36:20;7.75;;;5.55;;
77571;SDS011;67214;47.454;18.966;2023-04-10T14:38:48;7.53;;;5.90;;
77571;SDS011;67214;47.454;18.966;2023-04-10T14:41:16;11.40;;;6.90;;
77571;SDS011;67214;47.454;18.966;2023-04-10T14:43:43;8.60;;;7.25;;
77571;SDS011;67214;47.454;18.966;2023-04-10T14:46:10;10.35;;;7.80;;
77571;SDS011;67214;47.454;18.966;2023-04-10T14:48:38;15.25;;;12.98;;
77571;SDS011;67214;47.454;18.966;2023-04-10T14:51:06;13.43;;;8.15;;
77571;SDS011;67214;47.454;18.966;2023-04-10T14:53:38;8.75;;;7.58;;
77571;SDS011;67214;47.454;18.966;2023-04-10T14:56:09;7.47;;;6.45;;
77571;SDS011;67214;47.454;18.966;2023-04-10T14:58:37;8.23;;;7.10;;
77571;SDS011;67214;47.454;18.966;2023-04-10T15:01:08;9.15;;;7.25;;
77571;SDS011;67214;47.454;18.966;2023-04-10T15:03:37;8.18;;;6.62;;
77571;SDS011;67214;47.454;18.966;2023-04-10T15:06:05;9.35;;;7.25;;
77571;SDS011;67214;47.454;18.966;2023-04-10T15:08:33;7.53;;;6.60;;